createdAt,value
2023-03-21T00:01:04.959Z,99980.66
2023-03-21T00:03:33.799Z,99980.47
2023-03-21T00:06:10.723Z,99983.00
2023-03-21T00:08:38.348Z,99977.09
2023-03-21T00:11:07.500Z,99973.47
2023-03-21T00:13:37.761Z,99968.28
2023-03-21T00:16:12.186Z,99971.03
2023-03-21T00:18:51.820Z,99971.91
2023-03-21T00:21:48.806Z,99972.13
2023-03-21T00:24:07.573Z,99969.53
2023-03-21T00:26:34.377Z,99964.34
2023-03-21T00:29:01.158Z,99961.75
2023-03-21T00:31:27.976Z,99951.69
2023-03-21T00:33:54.876Z,99963.56
2023-03-21T00:36:25.336Z,99963.56
2023-03-21T00:38:52.000Z,99960.03
2023-03-21T00:41:31.626Z,99962.53
2023-03-21T00:44:01.689Z,99971.84
2023-03-21T00:46:39.753Z,99971.06
2023-03-21T00:49:09.257Z,99967.81
2023-03-21T00:51:36.171Z,99965.38
2023-03-21T00:54:05.263Z,99955.13
2023-03-21T00:56:31.971Z,99960.38
2023-03-21T00:58:58.868Z,99964.72
2023-03-21T01:01:26.052Z,99959.66
2023-03-21T01:04:02.946Z,99957.03
2023-03-21T01:06:32.783Z,99960.50
2023-03-21T01:08:59.349Z,99949.41
2023-03-21T01:11:28.278Z,99948.56
2023-03-21T01:14:07.167Z,99942.56
2023-03-21T01:16:35.805Z,99941.63
2023-03-21T01:19:07.001Z,99939.97
2023-03-21T01:21:34.087Z,99939.06
2023-03-21T01:24:01.161Z,99935.62
2023-03-21T01:26:28.686Z,99934.84
2023-03-21T01:28:55.284Z,99928.69
2023-03-21T01:31:22.480Z,99935.56
2023-03-21T01:33:49.433Z,99932.13
2023-03-21T01:36:23.186Z,99933.88
2023-03-21T01:38:51.528Z,99928.69
2023-03-21T01:41:36.715Z,99928.81
2023-03-21T01:44:17.453Z,99919.34
2023-03-21T01:46:57.347Z,99925.41
2023-03-21T01:49:35.479Z,99917.84
2023-03-21T01:52:15.232Z,99918.88
2023-03-21T01:54:47.738Z,99911.97
2023-03-21T01:57:21.760Z,99908.34
2023-03-21T01:59:53.771Z,99898.12
2023-03-21T02:02:26.881Z,99897.16
2023-03-21T02:04:57.616Z,99895.19
2023-03-21T02:07:31.025Z,99889.97
2023-03-21T02:10:02.772Z,99884.78
2023-03-21T02:12:30.191Z,99886.41
2023-03-21T02:14:57.186Z,99883.81
2023-03-21T02:17:53.900Z,99877.84
2023-03-21T02:20:42.236Z,99889.13
2023-03-21T02:23:23.866Z,99883.94
2023-03-21T02:26:06.013Z,99874.56
2023-03-21T02:28:38.919Z,99868.72
2023-03-21T02:31:33.805Z,99855.41
2023-03-21T02:34:36.713Z,99857.84
2023-03-21T02:37:11.621Z,99863.53
2023-03-21T02:40:16.345Z,99868.47
2023-03-21T02:42:59.422Z,99878.87
2023-03-21T02:45:35.705Z,99860.38
2023-03-21T02:48:20.312Z,99877.28
2023-03-21T02:50:55.105Z,99878.25
2023-03-21T02:53:45.441Z,99871.19
2023-03-21T02:56:12.372Z,99879.09
2023-03-21T02:58:41.462Z,99869.75
2023-03-21T03:01:08.616Z,99862.91
2023-03-21T03:03:38.791Z,99856.94
2023-03-21T03:06:16.418Z,99862.03
2023-03-21T03:09:03.007Z,99854.28
2023-03-21T03:11:35.957Z,99848.25
2023-03-21T03:15:00.220Z,99855.81
2023-03-21T03:18:09.672Z,99858.50
2023-03-21T03:20:52.692Z,99853.50
2023-03-21T03:23:41.300Z,99856.81
2023-03-21T03:26:31.100Z,99849.09
2023-03-21T03:29:02.586Z,99842.97
2023-03-21T03:31:35.013Z,99840.22
2023-03-21T03:34:06.582Z,99847.09
2023-03-21T03:36:41.360Z,99824.38
2023-03-21T03:39:11.194Z,99837.53
2023-03-21T03:42:21.711Z,99834.84
2023-03-21T03:44:40.243Z,99837.31
2023-03-21T03:47:22.844Z,99842.28
2023-03-21T03:50:09.234Z,99838.78
2023-03-21T03:52:53.648Z,99839.03
2023-03-21T03:55:25.893Z,99843.19
2023-03-21T03:57:54.957Z,99831.41
2023-03-21T04:00:21.551Z,99822.34
2023-03-21T04:02:48.617Z,99836.59
2023-03-21T04:05:22.847Z,99835.81
2023-03-21T04:07:50.668Z,99833.22
2023-03-21T04:10:19.459Z,99840.87
2023-03-21T04:12:48.191Z,99842.56
2023-03-21T04:15:16.346Z,99837.53
2023-03-21T04:17:44.765Z,99839.19
2023-03-21T04:20:18.677Z,99832.25
2023-03-21T04:22:50.684Z,99836.38
2023-03-21T04:25:30.790Z,99835.56
2023-03-21T04:28:00.399Z,99837.09
2023-03-21T04:30:33.550Z,99838.50
2023-03-21T04:33:00.640Z,99829.84
2023-03-21T04:35:28.473Z,99828.13
2023-03-21T04:37:55.736Z,99831.38
2023-03-21T04:40:24.541Z,99822.69
2023-03-21T04:42:54.487Z,99819.81
2023-03-21T04:45:21.697Z,99815.41
2023-03-21T04:47:49.407Z,99820.53
2023-03-21T04:50:16.203Z,99813.75
2023-03-21T04:52:43.027Z,99818.94
2023-03-21T04:55:10.654Z,99820.69
2023-03-21T04:57:39.877Z,99819.72
2023-03-21T05:00:10.043Z,99816.34
2023-03-21T05:02:38.378Z,99810.72
2023-03-21T05:05:10.407Z,99817.34
2023-03-21T05:07:39.114Z,99813.13
2023-03-21T05:10:07.933Z,99813.69
2023-03-21T05:12:35.187Z,99819.09
2023-03-21T05:15:02.259Z,99819.81
2023-03-21T05:17:29.998Z,99811.59
2023-03-21T05:19:57.175Z,99811.22
2023-03-21T05:22:26.178Z,99806.66
2023-03-21T05:24:54.681Z,99804.53
2023-03-21T05:27:44.694Z,99806.53
2023-03-21T05:30:15.712Z,99803.59
2023-03-21T05:32:43.215Z,99806.12
2023-03-21T05:35:11.078Z,99798.31
2023-03-21T05:37:38.320Z,99797.56
2023-03-21T05:40:06.641Z,99801.06
2023-03-21T05:42:34.390Z,99796.09
2023-03-21T05:45:08.738Z,99800.22
2023-03-21T05:47:36.067Z,99795.72
2023-03-21T05:50:04.129Z,99801.47
2023-03-21T05:52:31.459Z,99803.00
2023-03-21T05:54:58.930Z,99801.09
2023-03-21T05:57:28.212Z,99798.25
2023-03-21T05:59:56.101Z,99793.59
2023-03-21T06:02:23.110Z,99797.34
2023-03-21T06:04:53.502Z,99798.16
2023-03-21T06:07:20.682Z,99794.66
2023-03-21T06:09:49.213Z,99783.00
2023-03-21T06:12:16.283Z,99785.31
2023-03-21T06:14:43.085Z,99791.94
2023-03-21T06:17:10.520Z,99791.47
2023-03-21T06:19:39.901Z,99787.56
2023-03-21T06:22:07.224Z,99793.53
2023-03-21T06:24:34.549Z,99808.19
2023-03-21T06:27:03.505Z,99803.16
2023-03-21T06:29:32.941Z,99795.78
2023-03-21T06:32:00.076Z,99803.37
2023-03-21T06:34:27.107Z,99793.41
2023-03-21T06:36:54.161Z,99792.97
2023-03-21T06:39:21.463Z,99788.03
2023-03-21T06:41:48.406Z,99787.34
2023-03-21T06:44:15.321Z,99783.22
2023-03-21T06:46:43.538Z,99767.41
2023-03-21T06:49:11.505Z,99772.00
2023-03-21T06:51:38.291Z,99770.72
2023-03-21T06:54:05.198Z,99765.59
2023-03-21T06:56:33.207Z,99765.94
2023-03-21T06:59:02.186Z,99765.03
2023-03-21T07:01:32.284Z,99763.25
2023-03-21T07:03:59.945Z,99761.91
2023-03-21T07:06:27.256Z,99764.28
2023-03-21T07:08:55.337Z,99763.53
2023-03-21T07:11:23.624Z,99757.63
2023-03-21T07:13:50.996Z,99756.41
2023-03-21T07:16:18.619Z,99761.53
2023-03-21T07:18:46.051Z,99758.06
2023-03-21T07:21:13.339Z,99765.28
2023-03-21T07:23:40.671Z,99757.00
2023-03-21T07:26:07.620Z,99758.66
2023-03-21T07:28:34.279Z,99760.88
2023-03-21T07:31:04.640Z,99756.69
2023-03-21T07:33:32.861Z,99763.81
2023-03-21T07:36:01.921Z,99755.75
2023-03-21T07:38:30.366Z,99755.78
2023-03-21T07:41:00.155Z,99743.66
2023-03-21T07:43:29.182Z,99745.56
2023-03-21T07:45:57.421Z,99746.72
2023-03-21T07:48:26.820Z,99736.56
2023-03-21T07:50:53.383Z,99741.00
2023-03-21T07:53:20.276Z,99745.09
2023-03-21T07:55:52.422Z,99738.91
2023-03-21T07:58:19.064Z,99739.12
2023-03-21T08:00:45.722Z,99735.84
2023-03-21T08:03:12.658Z,99738.09
2023-03-21T08:05:40.558Z,99728.81
2023-03-21T08:08:07.619Z,99744.50
2023-03-21T08:10:34.915Z,99735.66
2023-03-21T08:13:02.075Z,99737.19
2023-03-21T08:15:28.776Z,99744.34
2023-03-21T08:17:55.808Z,99742.25
2023-03-21T08:20:22.769Z,99727.91
2023-03-21T08:22:50.209Z,99732.44
2023-03-21T08:25:19.004Z,99726.19
2023-03-21T08:27:46.117Z,99722.12
2023-03-21T08:30:15.881Z,99731.53
2023-03-21T08:32:42.889Z,99729.19
2023-03-21T08:35:12.353Z,99739.44
2023-03-21T08:37:40.681Z,99744.75
2023-03-21T08:40:11.293Z,99748.53
2023-03-21T08:42:38.701Z,99743.34
2023-03-21T08:45:06.135Z,99740.00
2023-03-21T08:47:33.013Z,99734.37
2023-03-21T08:49:59.892Z,99736.44
2023-03-21T08:52:27.187Z,99736.41
2023-03-21T08:54:54.754Z,99736.84
2023-03-21T08:57:21.356Z,99732.06
2023-03-21T08:59:48.013Z,99731.12
2023-03-21T09:02:16.179Z,99726.31
2023-03-21T09:04:44.054Z,99716.34
2023-03-21T09:07:14.405Z,99724.44
2023-03-21T09:09:41.664Z,99700.75
2023-03-21T09:12:08.383Z,99729.56
2023-03-21T09:14:35.399Z,99719.25
2023-03-21T09:17:02.156Z,99728.84
2023-03-21T09:19:29.724Z,99728.69
2023-03-21T09:21:57.309Z,99721.00
2023-03-21T09:24:24.165Z,99722.78
2023-03-21T09:26:51.053Z,99722.59
2023-03-21T09:29:20.722Z,99722.44
2023-03-21T09:31:48.004Z,99720.66
2023-03-21T09:34:15.058Z,99715.59
2023-03-21T09:36:43.670Z,99716.03
2023-03-21T09:39:12.108Z,99710.84
2023-03-21T09:42:19.117Z,99714.47
2023-03-21T09:45:08.065Z,99717.22
2023-03-21T09:47:52.359Z,99714.75
2023-03-21T09:50:26.785Z,99708.03
2023-03-21T09:52:58.144Z,99705.91
2023-03-21T09:55:30.467Z,99708.19
2023-03-21T09:58:21.352Z,99711.19
2023-03-21T10:00:55.958Z,99709.72
2023-03-21T10:03:29.114Z,99707.81
2023-03-21T10:06:00.963Z,99710.34
2023-03-21T10:08:35.903Z,99712.22
2023-03-21T10:11:11.981Z,99715.19
2023-03-21T10:13:43.552Z,99702.06
2023-03-21T10:16:33.693Z,99709.56
2023-03-21T10:19:04.862Z,99697.50
2023-03-21T10:21:58.502Z,99699.56
2023-03-21T10:24:24.717Z,99701.19
2023-03-21T10:26:52.881Z,99691.69
2023-03-21T10:29:24.131Z,99693.12
2023-03-21T10:31:52.420Z,99688.03
2023-03-21T10:34:41.106Z,99690.22
2023-03-21T10:37:08.294Z,99685.78
2023-03-21T10:39:37.897Z,99684.03
2023-03-21T10:42:04.530Z,99691.69
2023-03-21T10:44:33.850Z,99681.28
2023-03-21T10:47:06.544Z,99679.09
2023-03-21T10:49:40.757Z,99681.87
2023-03-21T10:52:21.899Z,99675.81
2023-03-21T10:54:49.680Z,99676.41
2023-03-21T10:57:21.169Z,99682.16
2023-03-21T10:59:55.182Z,99679.88
2023-03-21T11:02:32.738Z,99680.94
2023-03-21T11:05:06.010Z,99679.47
2023-03-21T11:07:34.989Z,99681.09
2023-03-21T11:10:19.957Z,99683.50
2023-03-21T11:12:56.593Z,99676.00
2023-03-21T11:16:02.382Z,99677.00
2023-03-21T11:18:32.814Z,99673.69
2023-03-21T11:21:05.848Z,99669.41
2023-03-21T11:23:36.887Z,99672.28
2023-03-21T11:26:10.203Z,99657.72
2023-03-21T11:28:39.698Z,99660.19
2023-03-21T11:31:08.736Z,99659.13
2023-03-21T11:33:39.945Z,99662.59
2023-03-21T11:36:31.438Z,99653.88
2023-03-21T11:39:03.130Z,99651.44
2023-03-21T11:41:32.738Z,99646.62
2023-03-21T11:44:01.187Z,99646.09
2023-03-21T11:46:30.770Z,99640.09
2023-03-21T11:48:59.670Z,99640.00
2023-03-21T11:51:52.848Z,99638.09
2023-03-21T11:54:28.886Z,99626.72
2023-03-21T11:57:18.094Z,99630.44
2023-03-21T11:59:57.438Z,99600.72
2023-03-21T12:02:55.350Z,99626.59
2023-03-21T12:05:35.883Z,99606.25
2023-03-21T12:08:19.544Z,99624.34
2023-03-21T12:10:57.884Z,99623.06
2023-03-21T12:14:00.156Z,99624.47
2023-03-21T12:16:42.787Z,99617.59
2023-03-21T12:19:43.118Z,99613.16
2023-03-21T12:22:37.091Z,99604.56
2023-03-21T12:25:13.571Z,99607.63
2023-03-21T12:28:08.729Z,99600.00
2023-03-21T12:31:04.898Z,99586.12
2023-03-21T12:33:49.785Z,99601.91
2023-03-21T12:36:49.184Z,99591.81
2023-03-21T12:39:28.409Z,99586.88
2023-03-21T12:42:13.141Z,99589.59
2023-03-21T12:44:47.256Z,99591.69
2023-03-21T12:47:19.555Z,99585.62
2023-03-21T12:49:52.000Z,99588.16
2023-03-21T12:52:26.234Z,99574.09
2023-03-21T12:55:18.725Z,99573.16
2023-03-21T12:58:02.849Z,99567.19
2023-03-21T13:00:52.567Z,99558.03
2023-03-21T13:03:30.581Z,99563.50
2023-03-21T13:06:06.820Z,99561.47
2023-03-21T13:08:38.960Z,99553.88
2023-03-21T13:11:07.608Z,99558.50
2023-03-21T13:13:56.222Z,99554.66
2023-03-21T13:16:32.077Z,99552.00
2023-03-21T13:19:12.780Z,99556.41
2023-03-21T13:21:56.694Z,99566.28
2023-03-21T13:24:28.875Z,99557.09
2023-03-21T13:27:03.540Z,99560.22
2023-03-21T13:29:51.798Z,99557.25
2023-03-21T13:32:33.068Z,99555.94
2023-03-21T13:35:13.026Z,99556.28
2023-03-21T13:37:43.157Z,99547.06
2023-03-21T13:40:24.125Z,99546.19
2023-03-21T13:42:56.321Z,99544.44
2023-03-21T13:45:30.533Z,99534.81
2023-03-21T13:48:02.921Z,99545.06
2023-03-21T13:50:34.722Z,99527.34
2023-03-21T13:53:19.837Z,99533.47
2023-03-21T13:55:57.405Z,99527.34
2023-03-21T13:58:34.429Z,99527.69
2023-03-21T14:01:12.931Z,99522.53
2023-03-21T14:03:40.737Z,99531.28
2023-03-21T14:06:10.191Z,99526.47
2023-03-21T14:08:40.744Z,99527.09
2023-03-21T14:11:14.383Z,99524.28
2023-03-21T14:13:50.755Z,99520.28
2023-03-21T14:16:21.317Z,99523.38
2023-03-21T14:18:55.933Z,99514.06
2023-03-21T14:21:25.955Z,99497.69
2023-03-21T14:23:57.910Z,99512.94
2023-03-21T14:26:28.522Z,99509.91
2023-03-21T14:28:57.421Z,99511.47
2023-03-21T14:31:25.670Z,99506.50
2023-03-21T14:33:57.154Z,99514.16
2023-03-21T14:36:28.079Z,99518.91
2023-03-21T14:39:03.405Z,99514.41
2023-03-21T14:41:31.995Z,99522.06
2023-03-21T14:44:24.721Z,99514.16
2023-03-21T14:47:12.200Z,99518.44
2023-03-21T14:49:38.978Z,99518.81
2023-03-21T14:52:12.746Z,99519.16
2023-03-21T14:54:43.920Z,99526.63
2023-03-21T14:57:13.926Z,99520.53
2023-03-21T14:59:41.626Z,99515.91
2023-03-21T15:02:27.786Z,99518.22
2023-03-21T15:04:58.371Z,99520.78
2023-03-21T15:07:34.088Z,99511.31
2023-03-21T15:10:08.419Z,99530.25
2023-03-21T15:12:35.307Z,99528.69
2023-03-21T15:15:02.601Z,99523.34
2023-03-21T15:17:30.498Z,99519.72
2023-03-21T15:19:57.159Z,99522.03
2023-03-21T15:22:47.443Z,99524.69
2023-03-21T15:25:20.545Z,99530.22
2023-03-21T15:27:50.340Z,99531.78
2023-03-21T15:30:21.699Z,99539.13
2023-03-21T15:32:49.765Z,99526.81
2023-03-21T15:35:21.007Z,99528.78
2023-03-21T15:37:57.588Z,99525.62
2023-03-21T15:40:27.181Z,99530.66
2023-03-21T15:43:15.003Z,99534.47
2023-03-21T15:45:54.364Z,99533.16
2023-03-21T15:48:25.557Z,99530.78
2023-03-21T15:51:03.545Z,99532.06
2023-03-21T15:53:33.222Z,99529.22
2023-03-21T15:56:05.277Z,99530.72
2023-03-21T15:58:35.989Z,99535.53
2023-03-21T16:01:06.517Z,99539.53
2023-03-21T16:03:39.913Z,99538.88
2023-03-21T16:06:20.202Z,99540.78
2023-03-21T16:08:49.703Z,99541.88
2023-03-21T16:11:27.592Z,99545.44
2023-03-21T16:13:55.939Z,99534.91
2023-03-21T16:16:28.349Z,99535.19
2023-03-21T16:18:57.267Z,99541.16
2023-03-21T16:21:30.025Z,99532.91
2023-03-21T16:23:59.616Z,99551.03
2023-03-21T16:26:31.503Z,99542.66
2023-03-21T16:28:58.921Z,99544.88
2023-03-21T16:31:28.618Z,99541.75
2023-03-21T16:33:55.256Z,99542.56
2023-03-21T16:36:28.887Z,99544.88
2023-03-21T16:38:56.031Z,99539.13
2023-03-21T16:41:24.173Z,99543.59
2023-03-21T16:43:51.701Z,99552.91
2023-03-21T16:46:27.268Z,99551.50
2023-03-21T16:48:57.082Z,99548.97
2023-03-21T16:51:29.923Z,99552.16
2023-03-21T16:53:57.250Z,99558.94
2023-03-21T16:56:27.423Z,99558.00
2023-03-21T16:58:55.297Z,99551.94
2023-03-21T17:01:27.742Z,99558.94
2023-03-21T17:03:54.353Z,99555.66
2023-03-21T17:06:24.126Z,99556.53
2023-03-21T17:08:51.889Z,99559.87
2023-03-21T17:11:21.507Z,99561.06
2023-03-21T17:13:50.337Z,99554.53
2023-03-21T17:16:20.331Z,99559.37
2023-03-21T17:18:47.805Z,99560.41
2023-03-21T17:21:17.443Z,99558.37
2023-03-21T17:23:44.799Z,99559.56
2023-03-21T17:26:13.974Z,99562.19
2023-03-21T17:28:41.625Z,99565.59
2023-03-21T17:31:13.902Z,99565.69
2023-03-21T17:33:41.396Z,99566.09
2023-03-21T17:36:15.172Z,99567.41
2023-03-21T17:38:42.579Z,99563.97
2023-03-21T17:41:12.166Z,99567.19
2023-03-21T17:43:40.336Z,99557.88
2023-03-21T17:46:12.421Z,99564.94
2023-03-21T17:48:39.237Z,99569.41
2023-03-21T17:51:06.382Z,99568.66
2023-03-21T17:53:33.168Z,99570.94
2023-03-21T17:56:00.201Z,99565.91
2023-03-21T17:58:27.801Z,99559.22
2023-03-21T18:00:54.342Z,99557.91
2023-03-21T18:03:21.082Z,99567.19
2023-03-21T18:05:47.714Z,99569.03
2023-03-21T18:08:14.176Z,99569.97
2023-03-21T18:10:41.950Z,99569.97
2023-03-21T18:13:08.961Z,99571.66
2023-03-21T18:15:38.068Z,99575.34
2023-03-21T18:18:05.574Z,99573.34
2023-03-21T18:23:20.201Z,99561.22
2023-03-21T18:25:47.174Z,99554.16
2023-03-21T18:28:14.170Z,99559.75
2023-03-21T18:31:06.992Z,99564.72
2023-03-21T18:33:27.761Z,99568.63
2023-03-21T18:35:59.001Z,99571.47
2023-03-21T18:38:27.384Z,99566.84
2023-03-21T18:40:55.204Z,99568.50
2023-03-21T18:46:08.894Z,99579.59
2023-03-21T18:48:36.001Z,99571.22
2023-03-21T18:51:04.125Z,99580.13
2023-03-21T18:53:32.076Z,99573.50
2023-03-21T18:55:58.623Z,99582.87
2023-03-21T18:58:25.192Z,99582.13
2023-03-21T19:00:53.092Z,99567.22
2023-03-21T19:03:34.097Z,99579.06
2023-03-21T19:06:05.520Z,99579.72
2023-03-21T19:08:34.040Z,99580.38
2023-03-21T19:11:04.377Z,99580.13
2023-03-21T19:13:33.779Z,99583.47
2023-03-21T19:16:02.500Z,99590.53
2023-03-21T19:18:50.227Z,99591.78
2023-03-21T19:21:18.370Z,99591.28
2023-03-21T19:24:20.899Z,99597.13
2023-03-21T19:26:32.351Z,99596.78
2023-03-21T19:28:59.051Z,99597.53
2023-03-21T19:31:26.101Z,99602.63
2023-03-21T19:33:53.006Z,99594.66
2023-03-21T19:36:22.770Z,99601.00
2023-03-21T19:38:50.905Z,99598.03
2023-03-21T19:41:20.211Z,99599.72
2023-03-21T19:43:54.157Z,99596.84
2023-03-21T19:46:24.326Z,99589.50
2023-03-21T19:48:55.934Z,99591.84
2023-03-21T19:51:28.749Z,99598.16
2023-03-21T19:53:56.484Z,99591.75
2023-03-21T19:56:27.066Z,99586.44
2023-03-21T19:58:55.004Z,99589.78
2023-03-21T20:01:23.338Z,99590.59
2023-03-21T20:03:51.674Z,99595.81
2023-03-21T20:06:18.437Z,99595.94
2023-03-21T20:11:32.604Z,99596.84
2023-03-21T20:14:01.327Z,99595.44
2023-03-21T20:16:34.276Z,99599.59
2023-03-21T20:19:05.221Z,99582.84
2023-03-21T20:21:41.095Z,99609.00
2023-03-21T20:24:12.199Z,99610.88
2023-03-21T20:26:38.906Z,99605.94
2023-03-21T20:29:48.464Z,99600.16
2023-03-21T20:31:52.588Z,99591.06
2023-03-21T20:34:19.171Z,99606.38
2023-03-21T20:36:46.264Z,99614.50
2023-03-21T20:39:13.337Z,99612.66
2023-03-21T20:41:40.308Z,99612.91
2023-03-21T20:44:41.667Z,99616.72
2023-03-21T20:46:54.372Z,99619.03
2023-03-21T20:49:22.488Z,99620.22
2023-03-21T20:54:36.695Z,99613.59
2023-03-21T20:57:05.037Z,99612.03
2023-03-21T20:59:31.913Z,99618.06
2023-03-21T21:01:59.006Z,99622.34
2023-03-21T21:07:16.781Z,99622.34
2023-03-21T21:09:44.902Z,99618.16
2023-03-21T21:12:13.055Z,99621.47
2023-03-21T21:14:40.674Z,99626.69
2023-03-21T21:17:24.582Z,99625.59
2023-03-21T21:19:54.116Z,99627.87
2023-03-21T21:22:20.784Z,99634.09
2023-03-21T21:24:47.311Z,99630.31
2023-03-21T21:27:14.183Z,99612.66
2023-03-21T21:29:42.626Z,99631.59
2023-03-21T21:32:09.263Z,99623.38
2023-03-21T21:34:36.562Z,99630.25
2023-03-21T21:37:03.334Z,99626.72
2023-03-21T21:39:35.308Z,99635.63
2023-03-21T21:42:02.148Z,99639.72
2023-03-21T21:44:29.321Z,99638.78
2023-03-21T21:46:56.760Z,99634.94
2023-03-21T21:49:24.132Z,99640.47
2023-03-21T21:51:50.590Z,99644.34
2023-03-21T21:54:17.459Z,99649.78
2023-03-21T21:56:47.632Z,99635.84
2023-03-21T21:59:15.879Z,99648.78
2023-03-21T22:01:42.468Z,99654.53
2023-03-21T22:04:10.707Z,99644.41
2023-03-21T22:06:37.320Z,99650.53
2023-03-21T22:09:06.300Z,99653.16
2023-03-21T22:11:34.199Z,99656.56
2023-03-21T22:14:00.718Z,99659.44
2023-03-21T22:16:27.529Z,99658.91
2023-03-21T22:18:54.349Z,99661.09
2023-03-21T22:21:20.841Z,99666.03
2023-03-21T22:23:47.300Z,99675.69
2023-03-21T22:26:14.586Z,99678.06
2023-03-21T22:28:42.382Z,99677.72
2023-03-21T22:31:15.023Z,99680.53
2023-03-21T22:33:43.369Z,99688.34
2023-03-21T22:36:10.516Z,99686.69
2023-03-21T22:38:37.645Z,99682.06
2023-03-21T22:41:05.843Z,99688.09
2023-03-21T22:43:33.461Z,99688.34
2023-03-21T22:46:02.237Z,99687.00
2023-03-21T22:48:30.391Z,99689.94
2023-03-21T22:50:58.079Z,99694.47
2023-03-21T22:53:25.108Z,99698.31
2023-03-21T22:55:51.853Z,99692.53
2023-03-21T22:58:18.599Z,99701.56
2023-03-21T23:00:45.314Z,99701.94
2023-03-21T23:03:13.897Z,99696.72
2023-03-21T23:05:41.085Z,99703.00
2023-03-21T23:08:08.322Z,99701.56
2023-03-21T23:10:38.757Z,99698.00
2023-03-21T23:13:06.185Z,99702.50
2023-03-21T23:15:32.737Z,99699.66
2023-03-21T23:17:59.529Z,99707.72
2023-03-21T23:20:26.003Z,99703.34
2023-03-21T23:22:52.548Z,99705.34
2023-03-21T23:25:19.819Z,99704.75
2023-03-21T23:27:46.605Z,99716.84
2023-03-21T23:30:13.549Z,99708.72
2023-03-21T23:32:40.404Z,99708.53
2023-03-21T23:35:07.692Z,99702.00
2023-03-21T23:37:34.551Z,99712.97
2023-03-21T23:40:01.572Z,99714.25
2023-03-21T23:42:30.048Z,99710.06
2023-03-21T23:44:56.578Z,99717.22
2023-03-21T23:47:23.373Z,99720.94
2023-03-21T23:49:52.065Z,99717.91
2023-03-21T23:52:18.642Z,99720.19
2023-03-21T23:54:45.556Z,99718.59
2023-03-21T23:57:12.292Z,99718.44
2023-03-21T23:59:38.840Z,99718.94
